Greendale, Missouri
Current Conditions -  °F | °C
As of 11:51 AM on Thursday 27 Nov 2014 (Local Time) from KSTL Reporting Station
Broken Clouds Broken Clouds  
Wind Chill: 24°   Ceiling: 25000
Heat Index: 34°   Visibility: 10mi
Dew Point: 24°   Wind: 15mph
Humidity: 67%   Direction: 290°WNW
Pressure: 30.47"   Gusts: 21mph
Location:  38.6807°N, 90.3068°W
Report Text: KSTL 271751Z 29013G18KT 10SM FEW023 SCT035 BKN250 01/M04 A3047 RMK AO2 SLP327 T00111044 10011 21011 56006 $
Loading
Personal Weather Stations






























Interactive Weather Map New forecast layout! Learn more

10-Day Weather Forecast

Advertisements
Track Severe Weather on mobile